EZY2561 LSZH-LFPG
Flight info
| Callsign | EZY2561 |
|---|---|
| Flight time | 1h 12m |
| Altitude | 18000 |
| Route | VEBIT T51 HR Y112 RLP |
| Aircraft | A20N/M-SDE2E3FGHIRWXY/LB1 |
Departure
| Time | 2026-05-05 20:47 |
|---|---|
| Airport | Zürich Airport (LSZH) |
Arrival
| Time | 2026-05-05 22:00 |
|---|---|
| Airport | Charles de Gaulle International Airport (LFPG) |
| Time | Latitude | Longitude | Altitude | Speed | Heading |
|---|---|---|---|---|---|
| 2026-05-05 20:24 | 47.45430 | 8.55747 | 1400 ft | 0 kts | 186° |
| 2026-05-05 20:38 | 47.45437 | 8.55748 | 1409 ft | 2 kts | 186° |
| 2026-05-05 20:38 | 47.45453 | 8.55751 | 1400 ft | 2 kts | 186° |
| 2026-05-05 20:38 | 47.45470 | 8.55754 | 1408 ft | 2 kts | 186° |
| 2026-05-05 20:38 | 47.45483 | 8.55755 | 1404 ft | 2 kts | 186° |
| 2026-05-05 20:39 | 47.45499 | 8.55752 | 1406 ft | 2 kts | 149° |
| 2026-05-05 20:39 | 47.45510 | 8.55735 | 1410 ft | 2 kts | 114° |
| 2026-05-05 20:39 | 47.45512 | 8.55730 | 1410 ft | 0 kts | 105° |
| 2026-05-05 20:42 | 47.45512 | 8.55731 | 1410 ft | 2 kts | 105° |
| 2026-05-05 20:42 | 47.45522 | 8.55826 | 1408 ft | 11 kts | 52° |
| 2026-05-05 20:42 | 47.45583 | 8.55846 | 1400 ft | 8 kts | 2° |
| 2026-05-05 20:43 | 47.45679 | 8.55863 | 1401 ft | 19 kts | 9° |
| 2026-05-05 20:43 | 47.45825 | 8.55893 | 1404 ft | 20 kts | 17° |
| 2026-05-05 20:43 | 47.45935 | 8.55947 | 1410 ft | 16 kts | 24° |
| 2026-05-05 20:43 | 47.46013 | 8.56033 | 1406 ft | 13 kts | 70° |
| 2026-05-05 20:44 | 47.46003 | 8.56204 | 1410 ft | 23 kts | 96° |
| 2026-05-05 20:44 | 47.46085 | 8.56349 | 1404 ft | 18 kts | 359° |
| 2026-05-05 20:44 | 47.46213 | 8.56326 | 1409 ft | 18 kts | 329° |
| 2026-05-05 20:44 | 47.46253 | 8.56278 | 1404 ft | 0 kts | 317° |
| 2026-05-05 20:46 | 47.46267 | 8.56259 | 1403 ft | 16 kts | 317° |
| 2026-05-05 20:46 | 47.46526 | 8.55905 | 1403 ft | 86 kts | 317° |
| 2026-05-05 20:46 | 47.47006 | 8.55239 | 1406 ft | 146 kts | 317° |
| 2026-05-05 20:47 | 47.47213 | 8.54957 | 1405 ft | 162 kts | 318° |
| 2026-05-05 20:47 | 47.47654 | 8.54381 | 1677 ft | 158 kts | 317° |
| 2026-05-05 20:47 | 47.48247 | 8.53678 | 2396 ft | 152 kts | 320° |
| 2026-05-05 20:47 | 47.48957 | 8.52890 | 2468 ft | 186 kts | 322° |
| 2026-05-05 20:48 | 47.49943 | 8.51888 | 3589 ft | 163 kts | 321° |
| 2026-05-05 20:48 | 47.50865 | 8.50955 | 4402 ft | 164 kts | 318° |
| 2026-05-05 20:48 | 47.51835 | 8.49880 | 4848 ft | 184 kts | 313° |
| 2026-05-05 20:48 | 47.52521 | 8.48807 | 4932 ft | 202 kts | 302° |
| 2026-05-05 20:49 | 47.53121 | 8.47199 | 4920 ft | 208 kts | 286° |
| 2026-05-05 20:49 | 47.53375 | 8.45263 | 4923 ft | 217 kts | 269° |
| 2026-05-05 20:49 | 47.53231 | 8.43504 | 5293 ft | 227 kts | 253° |
| 2026-05-05 20:49 | 47.52709 | 8.41479 | 6233 ft | 221 kts | 245° |
| 2026-05-05 20:50 | 47.52074 | 8.39655 | 7130 ft | 218 kts | 234° |
| 2026-05-05 20:50 | 47.50895 | 8.38362 | 7821 ft | 229 kts | 204° |
| 2026-05-05 20:50 | 47.49276 | 8.37709 | 8273 ft | 250 kts | 194° |
| 2026-05-05 20:50 | 47.47536 | 8.37217 | 8919 ft | 261 kts | 193° |
| 2026-05-05 20:51 | 47.45724 | 8.36705 | 9746 ft | 266 kts | 193° |
| 2026-05-05 20:51 | 47.43887 | 8.36158 | 10376 ft | 277 kts | 194° |
| 2026-05-05 20:51 | 47.42018 | 8.35578 | 10694 ft | 297 kts | 194° |
| 2026-05-05 20:51 | 47.39951 | 8.34936 | 11003 ft | 318 kts | 194° |
| 2026-05-05 20:52 | 47.37847 | 8.33709 | 11359 ft | 333 kts | 216° |
| 2026-05-05 20:52 | 47.36929 | 8.32492 | 11652 ft | 338 kts | 229° |
| 2026-05-05 20:52 | 47.35908 | 8.29911 | 12251 ft | 343 kts | 248° |
| 2026-05-05 20:52 | 47.35170 | 8.26595 | 13049 ft | 347 kts | 251° |
| 2026-05-05 20:53 | 47.34388 | 8.23250 | 13819 ft | 350 kts | 251° |
| 2026-05-05 20:53 | 47.33893 | 8.19969 | 14453 ft | 356 kts | 262° |
| 2026-05-05 20:53 | 47.33825 | 8.17247 | 14940 ft | 361 kts | 269° |
| 2026-05-05 20:53 | 47.34009 | 8.13516 | 15594 ft | 367 kts | 274° |
| 2026-05-05 20:54 | 47.34385 | 8.09772 | 16263 ft | 373 kts | 277° |
| 2026-05-05 20:54 | 47.34813 | 8.06385 | 16865 ft | 377 kts | 278° |
| 2026-05-05 20:54 | 47.35310 | 8.02736 | 17481 ft | 381 kts | 279° |
| 2026-05-05 20:54 | 47.35838 | 7.98900 | 18131 ft | 385 kts | 278° |
| 2026-05-05 20:55 | 47.36351 | 7.95085 | 18686 ft | 388 kts | 278° |
| 2026-05-05 20:55 | 47.36870 | 7.91087 | 19238 ft | 392 kts | 278° |
| 2026-05-05 20:55 | 47.37269 | 7.87934 | 19674 ft | 395 kts | 277° |
| 2026-05-05 20:55 | 47.37765 | 7.83935 | 20212 ft | 399 kts | 277° |
| 2026-05-05 20:56 | 47.37932 | 7.82573 | 20388 ft | 401 kts | 277° |
| 2026-05-05 20:56 | 47.38403 | 7.78709 | 20883 ft | 404 kts | 277° |
| 2026-05-05 20:56 | 47.38898 | 7.74614 | 21394 ft | 408 kts | 277° |
| 2026-05-05 20:56 | 47.39398 | 7.70472 | 21916 ft | 412 kts | 277° |
| 2026-05-05 20:57 | 47.39901 | 7.66295 | 22428 ft | 415 kts | 276° |
| 2026-05-05 20:57 | 47.40335 | 7.62677 | 22852 ft | 419 kts | 276° |
| 2026-05-05 20:57 | 47.40487 | 7.61411 | 22995 ft | 420 kts | 276° |
| 2026-05-05 20:57 | 47.40853 | 7.58362 | 23334 ft | 423 kts | 276° |
| 2026-05-05 20:58 | 47.41392 | 7.54083 | 23776 ft | 426 kts | 278° |
| 2026-05-05 20:58 | 47.41819 | 7.51293 | 24078 ft | 428 kts | 279° |
| 2026-05-05 20:58 | 47.42586 | 7.46882 | 24523 ft | 430 kts | 281° |
| 2026-05-05 20:58 | 47.43375 | 7.42670 | 24965 ft | 432 kts | 282° |
| 2026-05-05 20:59 | 47.44212 | 7.38328 | 25418 ft | 434 kts | 282° |
| 2026-05-05 20:59 | 47.45044 | 7.34014 | 25817 ft | 436 kts | 282° |
| 2026-05-05 20:59 | 47.45599 | 7.31105 | 26073 ft | 437 kts | 282° |
| 2026-05-05 20:59 | 47.46301 | 7.27398 | 26396 ft | 438 kts | 282° |
| 2026-05-05 21:00 | 47.47073 | 7.23266 | 26737 ft | 440 kts | 281° |
| 2026-05-05 21:00 | 47.47884 | 7.18885 | 27121 ft | 442 kts | 281° |
| 2026-05-05 21:00 | 47.48691 | 7.14495 | 27494 ft | 443 kts | 281° |
| 2026-05-05 21:00 | 47.49497 | 7.10091 | 27838 ft | 445 kts | 281° |
| 2026-05-05 21:01 | 47.50307 | 7.05653 | 28191 ft | 447 kts | 281° |
| 2026-05-05 21:01 | 47.51115 | 7.01220 | 28620 ft | 447 kts | 281° |
| 2026-05-05 21:01 | 47.51921 | 6.96791 | 29132 ft | 445 kts | 281° |
| 2026-05-05 21:01 | 47.52796 | 6.92398 | 29620 ft | 445 kts | 283° |
| 2026-05-05 21:02 | 47.53770 | 6.88091 | 29871 ft | 439 kts | 284° |
| 2026-05-05 21:02 | 47.54759 | 6.83840 | 29885 ft | 433 kts | 284° |
| 2026-05-05 21:02 | 47.56385 | 6.76874 | 29888 ft | 431 kts | 284° |
| 2026-05-05 21:03 | 47.58341 | 6.68472 | 29884 ft | 432 kts | 284° |
| 2026-05-05 21:03 | 47.60271 | 6.60173 | 29400 ft | 418 kts | 284° |
| 2026-05-05 21:04 | 47.61181 | 6.56248 | 28984 ft | 412 kts | 284° |
| 2026-05-05 21:04 | 47.62134 | 6.52125 | 28547 ft | 407 kts | 284° |
| 2026-05-05 21:04 | 47.63042 | 6.48189 | 28126 ft | 401 kts | 284° |
| 2026-05-05 21:04 | 47.63936 | 6.44307 | 27724 ft | 396 kts | 284° |
| 2026-05-05 21:05 | 47.64816 | 6.40476 | 27317 ft | 390 kts | 284° |
| 2026-05-05 21:05 | 47.65684 | 6.36689 | 26923 ft | 386 kts | 284° |
| 2026-05-05 21:05 | 47.66541 | 6.32946 | 26541 ft | 381 kts | 284° |
| 2026-05-05 21:05 | 47.67389 | 6.29238 | 26160 ft | 376 kts | 284° |
| 2026-05-05 21:06 | 47.68223 | 6.25581 | 25768 ft | 372 kts | 284° |
| 2026-05-05 21:06 | 47.69047 | 6.21965 | 25394 ft | 368 kts | 284° |
| 2026-05-05 21:06 | 47.69861 | 6.18384 | 25024 ft | 364 kts | 284° |
| 2026-05-05 21:06 | 47.70665 | 6.14844 | 24653 ft | 360 kts | 284° |
| 2026-05-05 21:07 | 47.71458 | 6.11344 | 24292 ft | 357 kts | 284° |
| 2026-05-05 21:07 | 47.72245 | 6.07868 | 23940 ft | 353 kts | 283° |
| 2026-05-05 21:07 | 47.73021 | 6.04431 | 23590 ft | 350 kts | 284° |
| 2026-05-05 21:07 | 47.73791 | 6.01015 | 23196 ft | 347 kts | 284° |
| 2026-05-05 21:08 | 47.74552 | 5.97636 | 22781 ft | 344 kts | 284° |
| 2026-05-05 21:08 | 47.75307 | 5.94276 | 22370 ft | 341 kts | 284° |
| 2026-05-05 21:08 | 47.76054 | 5.90947 | 21971 ft | 338 kts | 284° |
| 2026-05-05 21:08 | 47.76795 | 5.87639 | 21575 ft | 336 kts | 284° |
| 2026-05-05 21:09 | 47.77530 | 5.84358 | 21178 ft | 334 kts | 284° |
| 2026-05-05 21:09 | 47.78249 | 5.81137 | 20800 ft | 331 kts | 284° |
| 2026-05-05 21:09 | 47.78980 | 5.77860 | 20410 ft | 329 kts | 285° |
| 2026-05-05 21:09 | 47.79699 | 5.74635 | 20038 ft | 327 kts | 285° |
| 2026-05-05 21:10 | 47.80397 | 5.71496 | 19750 ft | 322 kts | 285° |
| 2026-05-05 21:10 | 47.81097 | 5.68346 | 19379 ft | 320 kts | 285° |
| 2026-05-05 21:10 | 47.81735 | 5.65467 | 19037 ft | 318 kts | 285° |
| 2026-05-05 21:10 | 47.82411 | 5.62416 | 18684 ft | 315 kts | 285° |
| 2026-05-05 21:11 | 47.83106 | 5.59271 | 18301 ft | 313 kts | 285° |
| 2026-05-05 21:11 | 47.83784 | 5.56201 | 17927 ft | 311 kts | 285° |
| 2026-05-05 21:11 | 47.84455 | 5.53156 | 17517 ft | 309 kts | 285° |
| 2026-05-05 21:11 | 47.85122 | 5.50130 | 17123 ft | 306 kts | 285° |
| 2026-05-05 21:12 | 47.85781 | 5.47133 | 16728 ft | 304 kts | 285° |
| 2026-05-05 21:12 | 47.86432 | 5.44172 | 16526 ft | 296 kts | 285° |
| 2026-05-05 21:12 | 47.87066 | 5.41284 | 16230 ft | 293 kts | 285° |
| 2026-05-05 21:12 | 47.87696 | 5.38401 | 15852 ft | 292 kts | 285° |
| 2026-05-05 21:13 | 47.88325 | 5.35525 | 15471 ft | 292 kts | 285° |
| 2026-05-05 21:13 | 47.88946 | 5.32678 | 15102 ft | 291 kts | 285° |
| 2026-05-05 21:13 | 47.89566 | 5.29835 | 14888 ft | 284 kts | 285° |
| 2026-05-05 21:13 | 47.90188 | 5.26970 | 14883 ft | 305 kts | 285° |
| 2026-05-05 21:14 | 47.90934 | 5.23846 | 14881 ft | 336 kts | 289° |
| 2026-05-05 21:14 | 47.91835 | 5.20482 | 14873 ft | 363 kts | 290° |
| 2026-05-05 21:14 | 47.92827 | 5.16878 | 14869 ft | 384 kts | 290° |
| 2026-05-05 21:14 | 47.93862 | 5.13129 | 14872 ft | 401 kts | 290° |
| 2026-05-05 21:15 | 47.94939 | 5.09216 | 14867 ft | 412 kts | 290° |
| 2026-05-05 21:15 | 47.96027 | 5.05256 | 14862 ft | 414 kts | 290° |
| 2026-05-05 21:15 | 47.97121 | 5.01273 | 14861 ft | 415 kts | 291° |
| 2026-05-05 21:15 | 47.98422 | 4.97484 | 14860 ft | 417 kts | 298° |
| 2026-05-05 21:16 | 47.99960 | 4.93818 | 14857 ft | 418 kts | 301° |
| 2026-05-05 21:16 | 48.01561 | 4.90195 | 14857 ft | 418 kts | 301° |
| 2026-05-05 21:16 | 48.03181 | 4.86591 | 14859 ft | 418 kts | 302° |
| 2026-05-05 21:16 | 48.04809 | 4.82994 | 14854 ft | 418 kts | 302° |
| 2026-05-05 21:17 | 48.06445 | 4.79385 | 14855 ft | 419 kts | 302° |
| 2026-05-05 21:17 | 48.08077 | 4.75789 | 14851 ft | 419 kts | 302° |
| 2026-05-05 21:17 | 48.09711 | 4.72184 | 14852 ft | 419 kts | 302° |
| 2026-05-05 21:17 | 48.11249 | 4.68790 | 14852 ft | 419 kts | 302° |
| 2026-05-05 21:18 | 48.12593 | 4.65819 | 14850 ft | 419 kts | 302° |
| 2026-05-05 21:18 | 48.14158 | 4.62359 | 14847 ft | 419 kts | 302° |
| 2026-05-05 21:18 | 48.15747 | 4.58839 | 14847 ft | 419 kts | 302° |
| 2026-05-05 21:18 | 48.17379 | 4.55222 | 14845 ft | 419 kts | 302° |
| 2026-05-05 21:19 | 48.19009 | 4.51602 | 14846 ft | 419 kts | 302° |
| 2026-05-05 21:19 | 48.20641 | 4.47974 | 14848 ft | 419 kts | 302° |
| 2026-05-05 21:19 | 48.22270 | 4.44347 | 14841 ft | 419 kts | 302° |
| 2026-05-05 21:19 | 48.23896 | 4.40724 | 14843 ft | 419 kts | 301° |
| 2026-05-05 21:20 | 48.25522 | 4.37094 | 14841 ft | 419 kts | 301° |
| 2026-05-05 21:20 | 48.27141 | 4.33477 | 14843 ft | 419 kts | 301° |
| 2026-05-05 21:20 | 48.28763 | 4.29846 | 14838 ft | 419 kts | 301° |
| 2026-05-05 21:20 | 48.30376 | 4.26232 | 14840 ft | 419 kts | 301° |
| 2026-05-05 21:21 | 48.31997 | 4.22595 | 14838 ft | 419 kts | 301° |
| 2026-05-05 21:21 | 48.33617 | 4.18954 | 14836 ft | 419 kts | 301° |
| 2026-05-05 21:21 | 48.35235 | 4.15314 | 14836 ft | 419 kts | 301° |
| 2026-05-05 21:21 | 48.36853 | 4.11668 | 14838 ft | 419 kts | 301° |
| 2026-05-05 21:22 | 48.38450 | 4.08066 | 14833 ft | 419 kts | 301° |
| 2026-05-05 21:22 | 48.40063 | 4.04421 | 14830 ft | 419 kts | 301° |
| 2026-05-05 21:22 | 48.41675 | 4.00776 | 14835 ft | 419 kts | 301° |
| 2026-05-05 21:22 | 48.43294 | 3.97108 | 14828 ft | 419 kts | 301° |
| 2026-05-05 21:23 | 48.44901 | 3.93462 | 14828 ft | 419 kts | 301° |
| 2026-05-05 21:23 | 48.46513 | 3.89800 | 14825 ft | 419 kts | 301° |
| 2026-05-05 21:23 | 48.48101 | 3.86189 | 14829 ft | 419 kts | 301° |
| 2026-05-05 21:23 | 48.49640 | 3.82686 | 14831 ft | 419 kts | 301° |
| 2026-05-05 21:24 | 48.51229 | 3.79064 | 14810 ft | 405 kts | 301° |
| 2026-05-05 21:24 | 48.52747 | 3.75603 | 14616 ft | 388 kts | 301° |
| 2026-05-05 21:24 | 48.54168 | 3.72358 | 14375 ft | 375 kts | 301° |
| 2026-05-05 21:24 | 48.55591 | 3.69101 | 14136 ft | 368 kts | 301° |
| 2026-05-05 21:25 | 48.56991 | 3.65889 | 13917 ft | 367 kts | 301° |
| 2026-05-05 21:25 | 48.58391 | 3.62673 | 13730 ft | 366 kts | 301° |
| 2026-05-05 21:25 | 48.59788 | 3.59461 | 13521 ft | 367 kts | 301° |
| 2026-05-05 21:25 | 48.61210 | 3.56160 | 13324 ft | 380 kts | 298° |
| 2026-05-05 21:26 | 48.62335 | 3.52533 | 13113 ft | 383 kts | 292° |
| 2026-05-05 21:26 | 48.63397 | 3.48849 | 12904 ft | 383 kts | 291° |
| 2026-05-05 21:26 | 48.64446 | 3.45151 | 12604 ft | 382 kts | 291° |
| 2026-05-05 21:26 | 48.65411 | 3.41769 | 12363 ft | 381 kts | 291° |
| 2026-05-05 21:27 | 48.66464 | 3.38099 | 12100 ft | 379 kts | 291° |
| 2026-05-05 21:27 | 48.67513 | 3.34455 | 11845 ft | 378 kts | 292° |
| 2026-05-05 21:27 | 48.68561 | 3.30818 | 11595 ft | 376 kts | 292° |
| 2026-05-05 21:27 | 48.69605 | 3.27197 | 11317 ft | 375 kts | 292° |
| 2026-05-05 21:28 | 48.70646 | 3.23586 | 11022 ft | 373 kts | 292° |
| 2026-05-05 21:28 | 48.71617 | 3.20212 | 10750 ft | 372 kts | 292° |
| 2026-05-05 21:28 | 48.72624 | 3.16708 | 10451 ft | 371 kts | 292° |
| 2026-05-05 21:28 | 48.73217 | 3.14644 | 10289 ft | 370 kts | 292° |
| 2026-05-05 21:29 | 48.73663 | 3.13091 | 10162 ft | 369 kts | 292° |
| 2026-05-05 21:29 | 48.74617 | 3.09765 | 9896 ft | 368 kts | 292° |
| 2026-05-05 21:29 | 48.75632 | 3.06220 | 9594 ft | 366 kts | 292° |
| 2026-05-05 21:29 | 48.76640 | 3.02694 | 9270 ft | 364 kts | 292° |
| 2026-05-05 21:30 | 48.77644 | 2.99178 | 8972 ft | 362 kts | 292° |
| 2026-05-05 21:30 | 48.78230 | 2.97119 | 8837 ft | 361 kts | 292° |
| 2026-05-05 21:30 | 48.78452 | 2.96340 | 8788 ft | 361 kts | 292° |
| 2026-05-05 21:30 | 48.79358 | 2.93160 | 8576 ft | 361 kts | 292° |
| 2026-05-05 21:31 | 48.79978 | 2.90981 | 8424 ft | 360 kts | 292° |
| 2026-05-05 21:31 | 48.80959 | 2.87528 | 8176 ft | 350 kts | 292° |
| 2026-05-05 21:31 | 48.81874 | 2.84304 | 7950 ft | 335 kts | 293° |
| 2026-05-05 21:31 | 48.82772 | 2.81132 | 7720 ft | 322 kts | 293° |
| 2026-05-05 21:32 | 48.83630 | 2.78098 | 7502 ft | 312 kts | 293° |
| 2026-05-05 21:32 | 48.84431 | 2.75262 | 7278 ft | 305 kts | 293° |
| 2026-05-05 21:32 | 48.85247 | 2.72370 | 7064 ft | 294 kts | 294° |
| 2026-05-05 21:32 | 48.85702 | 2.70754 | 6924 ft | 289 kts | 294° |
| 2026-05-05 21:33 | 48.86219 | 2.68919 | 6773 ft | 283 kts | 294° |
| 2026-05-05 21:33 | 48.86871 | 2.66600 | 6582 ft | 277 kts | 294° |
| 2026-05-05 21:33 | 48.87432 | 2.64606 | 6423 ft | 275 kts | 294° |
| 2026-05-05 21:33 | 48.88182 | 2.61939 | 6202 ft | 274 kts | 295° |
| 2026-05-05 21:34 | 48.88923 | 2.59296 | 5974 ft | 273 kts | 295° |
| 2026-05-05 21:34 | 48.89663 | 2.56656 | 5726 ft | 269 kts | 295° |
| 2026-05-05 21:34 | 48.90300 | 2.54383 | 5512 ft | 263 kts | 295° |
| 2026-05-05 21:34 | 48.91003 | 2.51872 | 5279 ft | 257 kts | 295° |
| 2026-05-05 21:35 | 48.91688 | 2.49421 | 5047 ft | 251 kts | 295° |
| 2026-05-05 21:35 | 48.91891 | 2.48690 | 4977 ft | 249 kts | 296° |
| 2026-05-05 21:35 | 48.91971 | 2.48405 | 4955 ft | 248 kts | 296° |
| 2026-05-05 21:35 | 48.92189 | 2.47622 | 4902 ft | 245 kts | 296° |
| 2026-05-05 21:36 | 48.92641 | 2.46001 | 4863 ft | 240 kts | 296° |
| 2026-05-05 21:36 | 48.93136 | 2.44228 | 4865 ft | 238 kts | 296° |
| 2026-05-05 21:36 | 48.93391 | 2.43314 | 4867 ft | 238 kts | 296° |
| 2026-05-05 21:36 | 48.93904 | 2.41477 | 4868 ft | 238 kts | 296° |
| 2026-05-05 21:37 | 48.94535 | 2.39202 | 4859 ft | 223 kts | 296° |
| 2026-05-05 21:37 | 48.95116 | 2.37100 | 4855 ft | 207 kts | 297° |
| 2026-05-05 21:37 | 48.95647 | 2.35176 | 4845 ft | 189 kts | 297° |
| 2026-05-05 21:37 | 48.96132 | 2.33430 | 4848 ft | 184 kts | 297° |
| 2026-05-05 21:38 | 48.96216 | 2.33127 | 4850 ft | 184 kts | 297° |
| 2026-05-05 21:38 | 48.96267 | 2.32944 | 4854 ft | 183 kts | 297° |
| 2026-05-05 21:38 | 48.96585 | 2.31809 | 4856 ft | 183 kts | 297° |
| 2026-05-05 21:38 | 48.97082 | 2.30037 | 4860 ft | 182 kts | 297° |
| 2026-05-05 21:39 | 48.97509 | 2.28500 | 4860 ft | 182 kts | 297° |
| 2026-05-05 21:39 | 48.97998 | 2.26732 | 4834 ft | 179 kts | 297° |
| 2026-05-05 21:39 | 48.98467 | 2.25022 | 4716 ft | 170 kts | 298° |
| 2026-05-05 21:39 | 48.98922 | 2.23374 | 4510 ft | 171 kts | 297° |
| 2026-05-05 21:40 | 48.99406 | 2.21678 | 4343 ft | 176 kts | 301° |
| 2026-05-05 21:40 | 49.00194 | 2.20341 | 4144 ft | 167 kts | 340° |
| 2026-05-05 21:40 | 49.01183 | 2.20320 | 3967 ft | 157 kts | 29° |
| 2026-05-05 21:40 | 49.01723 | 2.21295 | 3811 ft | 158 kts | 73° |
| 2026-05-05 21:41 | 49.01607 | 2.22927 | 3694 ft | 166 kts | 101° |
| 2026-05-05 21:41 | 49.01355 | 2.24507 | 3554 ft | 169 kts | 96° |
| 2026-05-05 21:41 | 49.01203 | 2.26212 | 3382 ft | 167 kts | 89° |
| 2026-05-05 21:41 | 49.01198 | 2.27954 | 3208 ft | 162 kts | 81° |
| 2026-05-05 21:42 | 49.01249 | 2.29342 | 3042 ft | 158 kts | 80° |
| 2026-05-05 21:42 | 49.01327 | 2.30940 | 2806 ft | 149 kts | 78° |
| 2026-05-05 21:42 | 49.01409 | 2.32470 | 2558 ft | 142 kts | 78° |
| 2026-05-05 21:42 | 49.01480 | 2.33880 | 2540 ft | 128 kts | 78° |
| 2026-05-05 21:43 | 49.01547 | 2.35197 | 2222 ft | 123 kts | 76° |
| 2026-05-05 21:43 | 49.01616 | 2.36485 | 1840 ft | 121 kts | 76° |
| 2026-05-05 21:43 | 49.01685 | 2.37739 | 1450 ft | 121 kts | 77° |
| 2026-05-05 21:43 | 49.01820 | 2.39233 | 1529 ft | 167 kts | 76° |
| 2026-05-05 21:44 | 49.01996 | 2.40871 | 1432 ft | 199 kts | 74° |
| 2026-05-05 21:44 | 49.02245 | 2.42843 | 1067 ft | 182 kts | 75° |
| 2026-05-05 21:44 | 49.02336 | 2.44319 | 1023 ft | 157 kts | 85° |
| 2026-05-05 21:44 | 49.02318 | 2.45716 | 837 ft | 148 kts | 88° |
| 2026-05-05 21:45 | 49.02308 | 2.47249 | 620 ft | 144 kts | 83° |
| 2026-05-05 21:45 | 49.02256 | 2.48607 | 634 ft | 129 kts | 89° |
| 2026-05-05 21:45 | 49.02211 | 2.49932 | 736 ft | 165 kts | 83° |
| 2026-05-05 21:45 | 49.02403 | 2.51831 | 579 ft | 180 kts | 76° |
| 2026-05-05 21:46 | 49.02529 | 2.53616 | 417 ft | 158 kts | 81° |
| 2026-05-05 21:46 | 49.02597 | 2.55236 | 738 ft | 164 kts | 82° |
| 2026-05-05 21:46 | 49.02686 | 2.57141 | 1206 ft | 190 kts | 81° |
| 2026-05-05 21:46 | 49.02715 | 2.57796 | 1458 ft | 188 kts | 82° |
| 2026-05-05 21:47 | 49.02781 | 2.59906 | 2050 ft | 186 kts | 82° |
| 2026-05-05 21:47 | 49.02839 | 2.61975 | 2565 ft | 204 kts | 82° |
| 2026-05-05 21:47 | 49.02923 | 2.64188 | 3073 ft | 216 kts | 82° |
| 2026-05-05 21:47 | 49.03031 | 2.66499 | 3553 ft | 218 kts | 82° |
| 2026-05-05 21:48 | 49.03150 | 2.68817 | 4036 ft | 221 kts | 82° |
| 2026-05-05 21:48 | 49.03354 | 2.71132 | 4519 ft | 221 kts | 70° |
| 2026-05-05 21:48 | 49.04192 | 2.73060 | 4903 ft | 221 kts | 39° |
| 2026-05-05 21:48 | 49.05588 | 2.74005 | 4991 ft | 223 kts | 8° |
| 2026-05-05 21:49 | 49.07106 | 2.73640 | 4990 ft | 229 kts | 337° |
| 2026-05-05 21:49 | 49.08440 | 2.72277 | 4990 ft | 232 kts | 323° |
| 2026-05-05 21:49 | 49.09623 | 2.70765 | 4994 ft | 233 kts | 322° |
| 2026-05-05 21:49 | 49.10844 | 2.69159 | 4993 ft | 233 kts | 322° |
| 2026-05-05 21:50 | 49.11660 | 2.68080 | 4991 ft | 233 kts | 322° |
| 2026-05-05 21:50 | 49.12406 | 2.67093 | 4993 ft | 233 kts | 322° |
| 2026-05-05 21:50 | 49.13346 | 2.65844 | 4991 ft | 232 kts | 322° |
| 2026-05-05 21:50 | 49.14576 | 2.64204 | 4992 ft | 232 kts | 322° |
| 2026-05-05 21:51 | 49.15790 | 2.62583 | 4992 ft | 232 kts | 322° |
| 2026-05-05 21:51 | 49.17005 | 2.60962 | 4991 ft | 232 kts | 322° |
| 2026-05-05 21:51 | 49.18159 | 2.59251 | 4983 ft | 234 kts | 308° |
| 2026-05-05 21:51 | 49.18718 | 2.56902 | 4992 ft | 241 kts | 277° |
| 2026-05-05 21:52 | 49.17981 | 2.52113 | 4995 ft | 247 kts | 252° |
| 2026-05-05 21:52 | 49.17390 | 2.49663 | 4990 ft | 240 kts | 252° |
| 2026-05-05 21:52 | 49.16819 | 2.47342 | 4994 ft | 229 kts | 252° |
| 2026-05-05 21:53 | 49.16257 | 2.45093 | 4994 ft | 228 kts | 251° |
| 2026-05-05 21:53 | 49.15690 | 2.42823 | 4991 ft | 228 kts | 252° |
| 2026-05-05 21:53 | 49.15120 | 2.40577 | 4989 ft | 223 kts | 251° |
| 2026-05-05 21:53 | 49.14592 | 2.38489 | 4986 ft | 208 kts | 252° |
| 2026-05-05 21:54 | 49.14059 | 2.36408 | 4988 ft | 206 kts | 251° |
| 2026-05-05 21:54 | 49.13503 | 2.34425 | 4741 ft | 207 kts | 241° |
| 2026-05-05 21:54 | 49.12542 | 2.33063 | 4509 ft | 207 kts | 205° |
| 2026-05-05 21:54 | 49.11164 | 2.32519 | 4248 ft | 205 kts | 185° |
| 2026-05-05 21:55 | 49.09758 | 2.32321 | 3976 ft | 200 kts | 181° |
| 2026-05-05 21:55 | 49.08389 | 2.32161 | 3735 ft | 196 kts | 182° |
| 2026-05-05 21:55 | 49.07069 | 2.32010 | 3496 ft | 193 kts | 182° |
| 2026-05-05 21:55 | 49.05732 | 2.31924 | 3226 ft | 191 kts | 168° |
| 2026-05-05 21:56 | 49.04586 | 2.32705 | 2987 ft | 182 kts | 135° |
| 2026-05-05 21:56 | 49.03607 | 2.33911 | 2721 ft | 178 kts | 132° |
| 2026-05-05 21:56 | 49.02824 | 2.35242 | 2463 ft | 158 kts | 108° |
| 2026-05-05 21:56 | 49.02563 | 2.36304 | 2283 ft | 147 kts | 96° |
| 2026-05-05 21:57 | 49.02339 | 2.37809 | 2049 ft | 145 kts | 92° |
| 2026-05-05 21:57 | 49.02162 | 2.39312 | 1992 ft | 145 kts | 90° |
| 2026-05-05 21:57 | 49.02026 | 2.40720 | 1993 ft | 148 kts | 89° |
| 2026-05-05 21:57 | 49.01952 | 2.42242 | 1840 ft | 146 kts | 79° |
| 2026-05-05 21:58 | 49.02003 | 2.43725 | 1585 ft | 146 kts | 80° |
| 2026-05-05 21:58 | 49.01997 | 2.45264 | 1219 ft | 148 kts | 82° |
| 2026-05-05 21:58 | 49.02040 | 2.46832 | 991 ft | 147 kts | 82° |
| 2026-05-05 21:58 | 49.02132 | 2.48399 | 1015 ft | 148 kts | 75° |
| 2026-05-05 21:59 | 49.02300 | 2.49938 | 800 ft | 148 kts | 78° |
| 2026-05-05 21:59 | 49.02400 | 2.51502 | 525 ft | 148 kts | 79° |
| 2026-05-05 21:59 | 49.02497 | 2.53040 | 377 ft | 147 kts | 79° |
| 2026-05-05 21:59 | 49.02556 | 2.53978 | 359 ft | 131 kts | 81° |
| 2026-05-05 22:00 | 49.02606 | 2.54970 | 362 ft | 93 kts | 87° |
| 2026-05-05 22:00 | 49.02636 | 2.55677 | 360 ft | 41 kts | 94° |
| 2026-05-05 22:00 | 49.02532 | 2.55941 | 359 ft | 25 kts | 162° |
| 2026-05-05 22:00 | 49.02419 | 2.55952 | 360 ft | 20 kts | 170° |
| 2026-05-05 22:01 | 49.02266 | 2.55973 | 364 ft | 28 kts | 176° |
| 2026-05-05 22:01 | 49.02146 | 2.55983 | 364 ft | 22 kts | 183° |
| 2026-05-05 22:01 | 49.02089 | 2.55903 | 363 ft | 19 kts | 255° |
| 2026-05-05 22:01 | 49.02075 | 2.55734 | 366 ft | 17 kts | 259° |
| 2026-05-05 22:02 | 49.02003 | 2.55662 | 358 ft | 15 kts | 176° |
| 2026-05-05 22:02 | 49.01909 | 2.55643 | 361 ft | 14 kts | 219° |
| 2026-05-05 22:02 | 49.01884 | 2.55506 | 361 ft | 13 kts | 264° |
| 2026-05-05 22:02 | 49.01876 | 2.55365 | 362 ft | 14 kts | 265° |
| 2026-05-05 22:03 | 49.01870 | 2.55224 | 359 ft | 14 kts | 265° |
| 2026-05-05 22:03 | 49.01814 | 2.55138 | 360 ft | 12 kts | 175° |
| 2026-05-05 22:03 | 49.01727 | 2.55147 | 358 ft | 13 kts | 176° |
| 2026-05-05 22:03 | 49.01633 | 2.55155 | 358 ft | 14 kts | 177° |
| 2026-05-05 22:04 | 49.01534 | 2.55166 | 362 ft | 14 kts | 175° |
| 2026-05-05 22:04 | 49.01426 | 2.55188 | 364 ft | 18 kts | 164° |
| 2026-05-05 22:04 | 49.01309 | 2.55218 | 360 ft | 16 kts | 190° |
| 2026-05-05 22:04 | 49.01210 | 2.55161 | 358 ft | 14 kts | 190° |
| 2026-05-05 22:05 | 49.01117 | 2.55180 | 360 ft | 13 kts | 164° |
| 2026-05-05 22:05 | 49.01036 | 2.55215 | 361 ft | 11 kts | 164° |
| 2026-05-05 22:05 | 49.00963 | 2.55246 | 361 ft | 11 kts | 164° |
| 2026-05-05 22:05 | 49.00844 | 2.55297 | 363 ft | 20 kts | 164° |
| 2026-05-05 22:06 | 49.00732 | 2.55347 | 363 ft | 18 kts | 164° |
| 2026-05-05 22:06 | 49.00618 | 2.55397 | 360 ft | 16 kts | 163° |
| 2026-05-05 22:06 | 49.00551 | 2.55487 | 357 ft | 13 kts | 93° |
| 2026-05-05 22:06 | 49.00554 | 2.55596 | 358 ft | 10 kts | 85° |
| 2026-05-05 22:07 | 49.00560 | 2.55688 | 358 ft | 7 kts | 85° |
| 2026-05-05 22:07 | 49.00563 | 2.55757 | 363 ft | 11 kts | 85° |
| 2026-05-05 22:07 | 49.00571 | 2.55888 | 356 ft | 12 kts | 81° |
| 2026-05-05 22:07 | 49.00585 | 2.56002 | 358 ft | 9 kts | 69° |
| 2026-05-05 22:08 | 49.00608 | 2.56062 | 361 ft | 2 kts | 13° |
| 2026-05-05 22:08 | 49.00617 | 2.56062 | 359 ft | 5 kts | 357° |
| 2026-05-05 22:08 | 49.00664 | 2.56054 | 358 ft | 4 kts | 356° |
| 2026-05-05 22:08 | 49.00677 | 2.56053 | 358 ft | 0 kts | 356° |